createdAt,value
2018-09-13T00:01:53.337Z,22.60
2018-09-13T00:04:20.882Z,22.60
2018-09-13T00:06:48.467Z,22.60
2018-09-13T00:09:16.015Z,22.50
2018-09-13T00:11:43.574Z,22.50
2018-09-13T00:14:11.165Z,22.50
2018-09-13T00:16:38.676Z,22.50
2018-09-13T00:19:06.287Z,22.50
2018-09-13T00:21:33.829Z,22.50
2018-09-13T00:24:01.357Z,22.50
2018-09-13T00:26:28.919Z,22.40
2018-09-13T00:28:56.459Z,22.50
2018-09-13T00:31:23.977Z,22.40
2018-09-13T00:33:51.577Z,22.40
2018-09-13T00:36:19.104Z,22.40
2018-09-13T00:38:46.666Z,22.40
2018-09-13T00:41:14.179Z,22.40
2018-09-13T00:43:41.724Z,22.30
2018-09-13T00:46:09.255Z,22.30
2018-09-13T00:48:36.751Z,22.30
2018-09-13T00:51:04.273Z,22.30
2018-09-13T00:53:31.819Z,22.20
2018-09-13T00:55:59.417Z,22.20
2018-09-13T00:58:26.949Z,22.20
2018-09-13T01:00:54.508Z,22.20
2018-09-13T01:03:22.027Z,22.20
2018-09-13T01:05:49.551Z,22.20
2018-09-13T01:08:17.183Z,22.30
2018-09-13T01:10:44.715Z,22.20
2018-09-13T01:13:12.380Z,22.10
2018-09-13T01:15:39.913Z,22.00
2018-09-13T01:18:07.467Z,21.90
2018-09-13T01:20:35.047Z,21.80
2018-09-13T01:23:02.603Z,21.80
2018-09-13T01:25:30.167Z,21.80
2018-09-13T01:27:57.715Z,21.80
2018-09-13T01:30:25.288Z,21.80
2018-09-13T01:32:52.837Z,21.70
2018-09-13T01:35:20.359Z,21.40
2018-09-13T01:37:47.876Z,21.40
2018-09-13T01:40:15.372Z,21.30
2018-09-13T01:42:42.915Z,21.20
2018-09-13T01:45:10.422Z,21.10
2018-09-13T01:47:38.059Z,21.10
2018-09-13T01:50:05.607Z,21.20
2018-09-13T01:52:33.105Z,21.20
2018-09-13T01:55:00.708Z,21.20
2018-09-13T01:57:28.301Z,21.30
2018-09-13T01:59:55.854Z,21.40
2018-09-13T02:02:23.350Z,21.40
2018-09-13T02:04:50.911Z,21.40
2018-09-13T02:07:18.492Z,21.50
2018-09-13T02:09:46.072Z,21.50
2018-09-13T02:12:14.230Z,21.60
2018-09-13T02:14:42.232Z,21.60
2018-09-13T02:17:09.833Z,21.60
2018-09-13T02:19:37.560Z,21.50
2018-09-13T02:22:05.144Z,21.60
2018-09-13T02:24:32.679Z,21.60
2018-09-13T02:27:00.237Z,21.60
2018-09-13T02:29:27.796Z,21.60
2018-09-13T02:31:55.361Z,21.70
2018-09-13T02:34:22.893Z,21.70
2018-09-13T02:36:50.416Z,21.60
2018-09-13T02:39:17.968Z,21.60
2018-09-13T02:41:45.544Z,21.60
2018-09-13T02:44:13.068Z,21.60
2018-09-13T02:46:40.706Z,21.60
2018-09-13T02:49:08.343Z,21.60
2018-09-13T02:51:35.858Z,21.50
2018-09-13T02:54:03.424Z,21.60
2018-09-13T02:56:31.049Z,21.60
2018-09-13T02:58:58.627Z,21.50
2018-09-13T03:01:26.220Z,21.50
2018-09-13T03:03:53.771Z,21.50
2018-09-13T03:06:21.315Z,21.50
2018-09-13T03:08:48.859Z,21.50
2018-09-13T03:11:16.427Z,21.50
2018-09-13T03:13:43.951Z,21.40
2018-09-13T03:16:11.485Z,21.30
2018-09-13T03:18:39.021Z,21.30
2018-09-13T03:21:06.552Z,21.30
2018-09-13T03:23:34.766Z,21.20
2018-09-13T03:26:02.292Z,21.20
2018-09-13T03:28:29.902Z,21.20
2018-09-13T03:30:57.482Z,21.20
2018-09-13T03:33:25.054Z,21.20
2018-09-13T03:35:52.605Z,21.20
2018-09-13T03:38:20.153Z,21.30
2018-09-13T03:40:47.658Z,21.30
2018-09-13T03:43:15.244Z,21.30
2018-09-13T03:45:42.800Z,21.30
2018-09-13T03:48:10.375Z,21.30
2018-09-13T03:50:37.902Z,21.30
2018-09-13T03:53:05.529Z,21.30
2018-09-13T03:55:33.061Z,21.30
2018-09-13T03:58:00.625Z,21.40
2018-09-13T04:00:28.158Z,21.30
2018-09-13T04:02:55.703Z,21.30
2018-09-13T04:05:23.212Z,21.30
2018-09-13T04:07:50.758Z,21.30
2018-09-13T04:10:18.274Z,21.30
2018-09-13T04:12:46.723Z,21.30
2018-09-13T04:15:14.328Z,21.20
2018-09-13T04:17:41.861Z,21.20
2018-09-13T04:20:09.365Z,21.10
2018-09-13T04:22:36.896Z,21.10
2018-09-13T04:25:04.475Z,21.10
2018-09-13T04:27:32.029Z,21.00
2018-09-13T04:29:59.604Z,21.00
2018-09-13T04:32:27.213Z,20.90
2018-09-13T04:34:54.775Z,20.90
2018-09-13T04:37:22.365Z,20.80
2018-09-13T04:39:49.943Z,20.80
2018-09-13T04:42:17.462Z,20.70
2018-09-13T04:44:45.037Z,20.80
2018-09-13T04:47:12.587Z,20.80
2018-09-13T04:49:40.231Z,20.90
2018-09-13T04:52:07.805Z,20.90
2018-09-13T04:54:35.389Z,20.90
2018-09-13T04:57:02.957Z,20.90
2018-09-13T04:59:30.511Z,20.90
2018-09-13T05:01:58.091Z,20.80
2018-09-13T05:04:25.671Z,20.80
2018-09-13T05:06:53.265Z,20.80
2018-09-13T05:09:20.874Z,20.80
2018-09-13T05:11:48.454Z,20.80
2018-09-13T05:14:16.059Z,20.70
2018-09-13T05:16:43.621Z,20.70
2018-09-13T05:19:11.167Z,20.70
2018-09-13T05:21:38.702Z,20.70
2018-09-13T05:24:06.319Z,20.70
2018-09-13T05:26:34.421Z,20.60
2018-09-13T05:29:02.028Z,20.70
2018-09-13T05:31:29.612Z,20.70
2018-09-13T05:33:57.099Z,20.80
2018-09-13T05:36:24.658Z,20.80
2018-09-13T05:38:52.260Z,20.80
2018-09-13T05:41:19.773Z,20.80
2018-09-13T05:43:47.366Z,20.80
2018-09-13T05:46:14.896Z,20.80
2018-09-13T05:48:42.531Z,20.80
2018-09-13T05:51:10.108Z,20.80
2018-09-13T05:53:37.635Z,20.90
2018-09-13T05:56:05.186Z,20.90
2018-09-13T05:58:32.806Z,20.90
2018-09-13T06:01:00.460Z,20.90
2018-09-13T06:03:28.052Z,20.90
2018-09-13T06:05:55.775Z,20.80
2018-09-13T06:08:23.372Z,20.80
2018-09-13T06:10:51.021Z,20.90
2018-09-13T06:13:18.579Z,20.90
2018-09-13T06:15:46.219Z,20.90
2018-09-13T06:18:13.975Z,20.80
2018-09-13T06:20:41.529Z,20.80
2018-09-13T06:23:09.104Z,20.80
2018-09-13T06:25:36.660Z,20.80
2018-09-13T06:28:04.279Z,20.70
2018-09-13T06:30:31.914Z,20.70
2018-09-13T06:33:01.042Z,20.80
2018-09-13T06:35:28.635Z,20.80
2018-09-13T06:37:56.236Z,20.80
2018-09-13T06:40:23.774Z,20.80
2018-09-13T06:42:51.355Z,20.90
2018-09-13T06:45:18.936Z,20.90
2018-09-13T06:47:46.498Z,20.90
2018-09-13T06:50:14.057Z,20.90
2018-09-13T06:52:41.614Z,21.00
2018-09-13T06:55:09.190Z,21.00
2018-09-13T06:57:36.830Z,21.00
2018-09-13T07:00:04.716Z,21.10
2018-09-13T07:02:32.326Z,21.10
2018-09-13T07:04:59.864Z,21.10
2018-09-13T07:07:27.512Z,21.20
2018-09-13T07:09:55.095Z,21.20
2018-09-13T07:12:22.619Z,21.30
2018-09-13T07:14:50.176Z,21.30
2018-09-13T07:17:17.836Z,21.30
2018-09-13T07:19:45.439Z,21.30
2018-09-13T07:22:13.076Z,21.30
2018-09-13T07:24:40.661Z,21.40
2018-09-13T07:27:08.239Z,21.50
2018-09-13T07:29:35.807Z,21.50
2018-09-13T07:32:03.383Z,21.60
2018-09-13T07:34:31.050Z,21.60
2018-09-13T07:36:58.579Z,21.60
2018-09-13T07:39:26.206Z,21.70
2018-09-13T07:41:53.782Z,21.70
2018-09-13T07:44:21.461Z,21.80
2018-09-13T07:46:49.089Z,21.90
2018-09-13T07:49:16.786Z,22.00
2018-09-13T07:51:44.358Z,22.00
2018-09-13T07:54:11.993Z,22.00
2018-09-13T07:56:39.543Z,22.00
2018-09-13T07:59:07.084Z,22.00
2018-09-13T08:01:34.647Z,22.10
2018-09-13T08:04:02.244Z,22.20
2018-09-13T08:06:29.818Z,22.20
2018-09-13T08:08:57.996Z,22.30
2018-09-13T08:11:25.568Z,22.40
2018-09-13T08:13:53.189Z,22.40
2018-09-13T08:16:20.749Z,22.50
2018-09-13T08:18:48.348Z,22.50
2018-09-13T08:21:15.972Z,22.60
2018-09-13T08:23:43.541Z,22.60
2018-09-13T08:26:11.097Z,22.70
2018-09-13T08:28:38.639Z,22.70
2018-09-13T08:31:06.194Z,22.70
2018-09-13T08:33:33.810Z,22.60
2018-09-13T08:36:01.456Z,22.70
2018-09-13T08:38:29.027Z,22.70
2018-09-13T08:40:56.666Z,22.80
2018-09-13T08:43:24.200Z,22.90
2018-09-13T08:45:51.736Z,23.00
2018-09-13T08:48:19.342Z,23.00
2018-09-13T08:50:46.926Z,23.10
2018-09-13T08:53:14.481Z,23.10
2018-09-13T08:55:42.062Z,23.10
2018-09-13T08:58:09.576Z,23.20
2018-09-13T09:00:37.213Z,23.30
2018-09-13T09:03:04.766Z,23.30
2018-09-13T09:05:32.300Z,23.40
2018-09-13T09:07:59.853Z,23.40
2018-09-13T09:10:27.416Z,23.50
2018-09-13T09:12:54.974Z,23.60
2018-09-13T09:15:22.581Z,23.70
2018-09-13T09:17:50.161Z,23.80
2018-09-13T09:20:17.738Z,23.90
2018-09-13T09:22:45.291Z,24.00
2018-09-13T09:25:12.875Z,24.20
2018-09-13T09:27:40.399Z,24.20
2018-09-13T09:30:08.014Z,24.30
2018-09-13T09:32:35.571Z,24.40
2018-09-13T09:35:03.294Z,24.60
2018-09-13T09:37:30.825Z,24.70
2018-09-13T09:39:58.386Z,25.00
2018-09-13T09:42:25.977Z,25.20
2018-09-13T09:44:53.734Z,25.40
2018-09-13T09:47:21.360Z,25.50
2018-09-13T09:49:48.919Z,25.70
2018-09-13T09:52:16.598Z,25.90
2018-09-13T09:54:44.414Z,26.20
2018-09-13T09:57:11.974Z,26.50
2018-09-13T09:59:39.534Z,27.00
2018-09-13T10:02:16.492Z,28.00
2018-09-13T10:04:44.811Z,28.80
2018-09-13T10:07:12.315Z,29.90
2018-09-13T10:09:39.921Z,30.80
2018-09-13T10:12:07.527Z,31.00
2018-09-13T10:14:35.101Z,30.60
2018-09-13T10:17:08.320Z,30.50
2018-09-13T10:19:42.032Z,31.40
2018-09-13T10:22:15.145Z,32.60
2018-09-13T10:24:48.377Z,33.80
2018-09-13T10:27:21.555Z,34.40
2018-09-13T10:29:54.761Z,35.50
2018-09-13T10:32:27.940Z,37.80
2018-09-13T10:35:01.119Z,40.00
2018-09-13T10:37:34.360Z,41.30
2018-09-13T10:40:07.591Z,42.30
2018-09-13T10:42:40.828Z,43.50
2018-09-13T10:45:13.952Z,43.90
2018-09-13T10:47:56.480Z,45.30
2018-09-13T10:50:19.323Z,46.10
2018-09-13T10:52:49.380Z,45.40
2018-09-13T10:55:17.154Z,45.00
2018-09-13T10:57:45.166Z,44.60
2018-09-13T11:00:13.817Z,44.00
2018-09-13T11:02:41.617Z,43.00
2018-09-13T11:05:09.268Z,42.10
2018-09-13T11:07:36.911Z,41.50
2018-09-13T11:10:04.601Z,41.50
2018-09-13T11:12:37.787Z,41.80
2018-09-13T11:15:41.447Z,41.80
2018-09-13T11:18:09.091Z,41.20
2018-09-13T11:20:36.774Z,40.00
2018-09-13T11:23:04.391Z,38.80
2018-09-13T11:25:31.999Z,37.40
2018-09-13T11:27:59.615Z,36.40
2018-09-13T11:30:27.293Z,35.40
2018-09-13T11:32:54.833Z,35.40
2018-09-13T11:35:22.549Z,35.90
2018-09-13T11:37:50.175Z,35.60
2018-09-13T11:40:17.929Z,35.00
2018-09-13T11:42:45.479Z,34.30
2018-09-13T11:45:13.106Z,34.20
2018-09-13T11:47:41.315Z,34.60
2018-09-13T11:50:09.087Z,34.00
2018-09-13T11:52:36.695Z,33.00
2018-09-13T11:55:04.515Z,32.10
2018-09-13T11:57:32.084Z,31.40
2018-09-13T11:59:59.770Z,30.90
2018-09-13T12:02:27.810Z,30.60
2018-09-13T12:04:55.384Z,30.20
2018-09-13T12:07:22.986Z,29.80
2018-09-13T12:09:50.544Z,29.50
2018-09-13T12:12:18.128Z,29.30
2018-09-13T12:14:45.689Z,29.00
2018-09-13T12:17:13.256Z,28.80
2018-09-13T12:19:40.844Z,28.60
2018-09-13T12:22:08.477Z,28.50
2018-09-13T12:24:36.335Z,28.50
2018-09-13T12:27:03.910Z,28.40
2018-09-13T12:29:31.824Z,28.30
2018-09-13T12:31:59.731Z,28.20
2018-09-13T12:34:27.312Z,28.10
2018-09-13T12:36:54.937Z,27.90
2018-09-13T12:39:22.559Z,27.70
2018-09-13T12:41:50.168Z,27.60
2018-09-13T12:44:17.716Z,27.40
2018-09-13T12:46:45.321Z,27.30
2018-09-13T12:49:13.053Z,27.10
2018-09-13T12:51:40.803Z,27.00
2018-09-13T12:54:08.424Z,26.80
2018-09-13T12:56:36.450Z,26.70
2018-09-13T12:59:03.987Z,26.60
2018-09-13T13:01:31.655Z,26.50
2018-09-13T13:03:59.346Z,26.50
2018-09-13T13:06:26.919Z,26.40
2018-09-13T13:08:54.537Z,26.40
2018-09-13T13:11:22.260Z,26.30
2018-09-13T13:13:49.814Z,26.30
2018-09-13T13:16:17.402Z,26.30
2018-09-13T13:18:45.123Z,26.30
2018-09-13T13:21:12.830Z,26.30
2018-09-13T13:23:40.446Z,26.30
2018-09-13T13:26:08.076Z,26.30
2018-09-13T13:28:35.724Z,26.40
2018-09-13T13:31:03.307Z,26.50
2018-09-13T13:33:30.890Z,26.60
2018-09-13T13:35:58.475Z,26.80
2018-09-13T13:38:26.041Z,26.90
2018-09-13T13:40:53.616Z,26.90
2018-09-13T13:43:21.328Z,27.00
2018-09-13T13:45:49.033Z,27.00
2018-09-13T13:48:17.247Z,27.10
2018-09-13T13:50:44.874Z,27.30
2018-09-13T13:53:12.758Z,27.80
2018-09-13T13:55:40.353Z,28.70
2018-09-13T13:58:08.063Z,29.60
2018-09-13T14:00:35.646Z,30.20
2018-09-13T14:03:03.444Z,30.80
2018-09-13T14:05:31.215Z,31.50
2018-09-13T14:07:58.802Z,31.70
2018-09-13T14:10:26.417Z,31.60
2018-09-13T14:12:54.308Z,31.10
2018-09-13T14:15:21.932Z,30.70
2018-09-13T14:17:49.856Z,30.30
2018-09-13T14:20:17.545Z,30.00
2018-09-13T14:22:45.276Z,29.80
2018-09-13T14:25:12.993Z,29.60
2018-09-13T14:27:40.773Z,29.40
2018-09-13T14:30:08.413Z,29.20
2018-09-13T14:32:36.058Z,29.00
2018-09-13T14:35:03.783Z,28.70
2018-09-13T14:37:31.432Z,28.60
2018-09-13T14:39:59.121Z,28.40
2018-09-13T14:42:26.827Z,28.20
2018-09-13T14:44:54.440Z,28.10
2018-09-13T14:47:22.066Z,27.80
2018-09-13T14:49:49.700Z,27.70
2018-09-13T14:52:17.323Z,27.60
2018-09-13T14:54:45.503Z,27.40
2018-09-13T14:57:13.262Z,27.60
2018-09-13T14:59:40.966Z,27.90
2018-09-13T15:02:08.601Z,28.30
2018-09-13T15:04:36.448Z,28.40
2018-09-13T15:07:04.319Z,28.40
2018-09-13T15:09:32.457Z,28.30
2018-09-13T15:12:00.147Z,28.20
2018-09-13T15:14:27.825Z,28.10
2018-09-13T15:16:55.593Z,27.90
2018-09-13T15:19:23.271Z,27.90
2018-09-13T15:21:50.979Z,28.00
2018-09-13T15:24:20.336Z,28.20
2018-09-13T15:26:48.576Z,28.40
2018-09-13T15:29:16.210Z,28.60
2018-09-13T15:31:43.816Z,28.60
2018-09-13T15:34:11.430Z,28.50
2018-09-13T15:36:39.090Z,28.30
2018-09-13T15:39:09.092Z,28.10
2018-09-13T15:41:36.677Z,28.00
2018-09-13T15:44:04.464Z,27.90
2018-09-13T15:46:32.060Z,27.80
2018-09-13T15:49:01.036Z,27.70
2018-09-13T15:51:28.679Z,27.70
2018-09-13T15:53:56.336Z,27.70
2018-09-13T15:56:23.971Z,27.70
2018-09-13T15:58:51.614Z,27.60
2018-09-13T16:01:19.285Z,27.50
2018-09-13T16:03:46.923Z,27.40
2018-09-13T16:06:14.580Z,27.40
2018-09-13T16:08:42.249Z,27.30
2018-09-13T16:11:09.850Z,27.20
2018-09-13T16:13:37.477Z,27.10
2018-09-13T16:16:05.135Z,27.00
2018-09-13T16:18:32.792Z,26.90
2018-09-13T16:21:00.445Z,26.80
2018-09-13T16:23:28.009Z,26.60
2018-09-13T16:25:55.613Z,26.50
2018-09-13T16:28:23.250Z,26.40
2018-09-13T16:30:50.905Z,26.30
2018-09-13T16:33:18.551Z,26.10
2018-09-13T16:35:49.227Z,25.90
2018-09-13T16:38:26.748Z,25.80
2018-09-13T16:41:00.114Z,25.70
2018-09-13T16:43:33.255Z,25.60
2018-09-13T16:46:01.060Z,25.50
2018-09-13T16:48:34.276Z,25.40
2018-09-13T16:51:02.020Z,25.30
2018-09-13T16:53:30.650Z,25.30
2018-09-13T16:55:58.364Z,25.20
2018-09-13T16:58:26.102Z,25.20
2018-09-13T17:00:53.830Z,25.20
2018-09-13T17:03:21.566Z,25.10
2018-09-13T17:05:49.436Z,25.10
2018-09-13T17:08:17.282Z,25.00
2018-09-13T17:10:45.027Z,25.00
2018-09-13T17:13:12.735Z,24.90
2018-09-13T17:15:40.402Z,24.80
2018-09-13T17:18:08.209Z,24.80
2018-09-13T17:20:35.934Z,24.80
2018-09-13T17:23:03.613Z,24.70
2018-09-13T17:25:31.298Z,24.70
2018-09-13T17:27:59.024Z,24.60
2018-09-13T17:30:26.737Z,24.50
2018-09-13T17:32:54.908Z,24.50
2018-09-13T17:35:22.831Z,24.50
2018-09-13T17:37:50.499Z,24.50
2018-09-13T17:40:18.329Z,24.40
2018-09-13T17:42:45.995Z,24.40
2018-09-13T17:45:13.638Z,24.30
2018-09-13T17:47:41.361Z,24.30
2018-09-13T17:50:09.080Z,24.20
2018-09-13T17:52:36.735Z,24.10
2018-09-13T17:55:04.525Z,24.00
2018-09-13T17:57:32.186Z,23.90
2018-09-13T17:59:59.873Z,23.80
2018-09-13T18:02:27.546Z,23.70
2018-09-13T18:04:55.213Z,23.60
2018-09-13T18:07:22.888Z,23.60
2018-09-13T18:09:50.578Z,23.50
2018-09-13T18:12:18.860Z,23.40
2018-09-13T18:14:47.358Z,23.30
2018-09-13T18:17:15.160Z,23.20
2018-09-13T18:19:42.863Z,23.10
2018-09-13T18:22:10.714Z,23.00
2018-09-13T18:24:38.521Z,22.80
2018-09-13T18:27:07.206Z,22.80
2018-09-13T18:29:34.968Z,22.70
2018-09-13T18:32:02.766Z,22.60
2018-09-13T18:34:30.451Z,22.60
2018-09-13T18:36:58.148Z,22.50
2018-09-13T18:39:25.823Z,22.50
2018-09-13T18:41:53.540Z,22.40
2018-09-13T18:44:21.245Z,22.40
2018-09-13T18:46:48.962Z,22.30
2018-09-13T18:49:16.640Z,22.30
2018-09-13T18:51:44.474Z,22.20
2018-09-13T18:54:12.286Z,22.20
2018-09-13T18:56:40.017Z,22.20
2018-09-13T18:59:08.151Z,22.10
2018-09-13T19:01:37.072Z,22.10
2018-09-13T19:04:04.908Z,22.10
2018-09-13T19:06:32.741Z,22.10
2018-09-13T19:09:00.428Z,22.10
2018-09-13T19:11:28.207Z,22.10
2018-09-13T19:13:55.960Z,22.10
2018-09-13T19:16:23.715Z,22.10
2018-09-13T19:18:51.445Z,22.00
2018-09-13T19:21:19.959Z,22.00
2018-09-13T19:23:47.569Z,22.10
2018-09-13T19:26:15.412Z,22.00
2018-09-13T19:28:43.114Z,22.00
2018-09-13T19:31:10.881Z,22.10
2018-09-13T19:33:38.526Z,22.10
2018-09-13T19:36:06.246Z,22.10
2018-09-13T19:38:34.029Z,22.10
2018-09-13T19:41:01.900Z,22.10
2018-09-13T19:43:29.784Z,22.20
2018-09-13T19:45:57.459Z,22.10
2018-09-13T19:48:25.106Z,22.10
2018-09-13T19:50:52.959Z,22.20
2018-09-13T19:53:20.763Z,22.20
2018-09-13T19:55:48.481Z,22.20
2018-09-13T19:58:16.122Z,22.10
2018-09-13T20:00:43.843Z,22.10
2018-09-13T20:03:11.615Z,22.10
2018-09-13T20:05:39.317Z,22.00
2018-09-13T20:08:07.187Z,22.10
2018-09-13T20:10:35.033Z,22.10
2018-09-13T20:13:03.069Z,22.10
2018-09-13T20:15:30.778Z,22.10
2018-09-13T20:17:58.463Z,22.10
2018-09-13T20:20:26.203Z,22.00
2018-09-13T20:22:53.900Z,22.00
2018-09-13T20:25:21.673Z,22.10
2018-09-13T20:27:49.343Z,22.10
2018-09-13T20:30:16.977Z,22.10
2018-09-13T20:32:44.698Z,22.10
2018-09-13T20:35:12.901Z,22.10
2018-09-13T20:37:40.580Z,22.10
2018-09-13T20:40:08.285Z,22.10
2018-09-13T20:42:35.961Z,22.10
2018-09-13T20:45:03.679Z,22.10
2018-09-13T20:47:31.365Z,22.00
2018-09-13T20:49:59.081Z,22.00
2018-09-13T20:52:26.684Z,22.00
2018-09-13T20:54:54.412Z,21.90
2018-09-13T20:57:22.001Z,21.80
2018-09-13T20:59:49.657Z,21.70
2018-09-13T21:02:17.239Z,21.60
2018-09-13T21:04:44.816Z,21.40
2018-09-13T21:07:12.558Z,21.40
2018-09-13T21:09:40.163Z,21.30
2018-09-13T21:12:07.757Z,21.30
2018-09-13T21:14:35.407Z,21.20
2018-09-13T21:17:03.115Z,21.10
2018-09-13T21:19:30.687Z,21.00
2018-09-13T21:21:58.239Z,21.00
2018-09-13T21:24:25.921Z,20.90
2018-09-13T21:26:53.468Z,20.80
2018-09-13T21:29:21.168Z,20.60
2018-09-13T21:31:48.826Z,20.60
2018-09-13T21:34:16.496Z,20.60
2018-09-13T21:36:44.147Z,20.70
2018-09-13T21:39:11.842Z,20.70
2018-09-13T21:41:39.411Z,20.70
2018-09-13T21:44:06.960Z,20.80
2018-09-13T21:46:34.592Z,20.80
2018-09-13T21:49:02.179Z,20.80
2018-09-13T21:51:29.858Z,20.80
2018-09-13T21:53:57.494Z,20.80
2018-09-13T21:56:25.103Z,20.80
2018-09-13T21:58:52.829Z,20.80
2018-09-13T22:01:20.379Z,20.70
2018-09-13T22:03:47.950Z,20.70
2018-09-13T22:06:15.543Z,20.80
2018-09-13T22:08:43.104Z,20.80
2018-09-13T22:11:10.729Z,20.80
2018-09-13T22:13:38.259Z,20.70
2018-09-13T22:16:06.105Z,20.70
2018-09-13T22:18:33.724Z,20.70
2018-09-13T22:21:01.337Z,20.70
2018-09-13T22:23:28.893Z,20.60
2018-09-13T22:25:56.474Z,20.60
2018-09-13T22:28:24.065Z,20.60
2018-09-13T22:30:51.607Z,20.60
2018-09-13T22:33:19.236Z,20.50
2018-09-13T22:35:46.808Z,20.50
2018-09-13T22:38:14.366Z,20.50
2018-09-13T22:40:41.971Z,20.50
2018-09-13T22:43:09.514Z,20.50
2018-09-13T22:45:37.036Z,20.50
2018-09-13T22:48:04.818Z,20.50
2018-09-13T22:50:32.357Z,20.50
2018-09-13T22:52:59.882Z,20.50
2018-09-13T22:55:27.464Z,20.40
2018-09-13T22:57:55.036Z,20.40
2018-09-13T23:00:22.630Z,20.40
2018-09-13T23:02:50.238Z,20.40
2018-09-13T23:05:18.849Z,20.30
2018-09-13T23:07:46.918Z,20.20
2018-09-13T23:10:14.883Z,20.30
2018-09-13T23:12:42.480Z,20.20
2018-09-13T23:15:10.186Z,20.20
2018-09-13T23:17:37.809Z,20.20
2018-09-13T23:20:05.482Z,20.10
2018-09-13T23:22:33.047Z,20.00
2018-09-13T23:25:00.701Z,20.10
2018-09-13T23:27:28.314Z,20.10
2018-09-13T23:29:55.906Z,20.10
2018-09-13T23:32:23.654Z,20.10
2018-09-13T23:34:51.300Z,20.10
2018-09-13T23:37:18.848Z,20.00
2018-09-13T23:39:46.598Z,20.10
2018-09-13T23:42:14.001Z,20.10
2018-09-13T23:44:41.598Z,20.10
2018-09-13T23:47:09.109Z,20.00
2018-09-13T23:49:36.683Z,20.00
2018-09-13T23:52:04.300Z,20.00
2018-09-13T23:54:31.890Z,20.00
2018-09-13T23:56:59.444Z,20.00
2018-09-13T23:59:27.042Z,20.00
